sensor_id;sensor_type;location;lat;lon;timestamp;P1;durP1;ratioP1;P2;durP2;ratioP2
7181;SDS011;3632;42.724;23.298;2023-05-07T00:01:07;11.83;;;10.47;;
7181;SDS011;3632;42.724;23.298;2023-05-07T00:03:34;12.13;;;9.97;;
7181;SDS011;3632;42.724;23.298;2023-05-07T00:06:01;12.53;;;10.27;;
7181;SDS011;3632;42.724;23.298;2023-05-07T00:08:28;14.63;;;10.67;;
7181;SDS011;3632;42.724;23.298;2023-05-07T00:10:55;15.23;;;11.10;;
7181;SDS011;3632;42.724;23.298;2023-05-07T00:13:22;13.17;;;10.83;;
7181;SDS011;3632;42.724;23.298;2023-05-07T00:15:48;14.37;;;11.30;;
7181;SDS011;3632;42.724;23.298;2023-05-07T00:18:17;16.73;;;10.97;;
7181;SDS011;3632;42.724;23.298;2023-05-07T00:20:46;13.37;;;10.00;;
7181;SDS011;3632;42.724;23.298;2023-05-07T00:23:12;13.20;;;10.23;;
7181;SDS011;3632;42.724;23.298;2023-05-07T00:25:39;11.73;;;9.93;;
7181;SDS011;3632;42.724;23.298;2023-05-07T00:28:06;11.60;;;9.37;;
7181;SDS011;3632;42.724;23.298;2023-05-07T00:30:33;11.93;;;9.33;;
7181;SDS011;3632;42.724;23.298;2023-05-07T00:32:59;11.67;;;9.70;;
7181;SDS011;3632;42.724;23.298;2023-05-07T00:35:27;15.53;;;10.67;;
7181;SDS011;3632;42.724;23.298;2023-05-07T00:37:54;11.77;;;8.97;;
7181;SDS011;3632;42.724;23.298;2023-05-07T00:40:21;12.70;;;9.73;;
7181;SDS011;3632;42.724;23.298;2023-05-07T00:42:48;12.83;;;10.30;;
7181;SDS011;3632;42.724;23.298;2023-05-07T00:45:15;15.03;;;9.97;;
7181;SDS011;3632;42.724;23.298;2023-05-07T00:47:42;13.17;;;9.30;;
7181;SDS011;3632;42.724;23.298;2023-05-07T00:50:10;13.00;;;10.30;;
7181;SDS011;3632;42.724;23.298;2023-05-07T00:52:38;13.67;;;10.00;;
7181;SDS011;3632;42.724;23.298;2023-05-07T00:55:07;12.40;;;10.07;;
7181;SDS011;3632;42.724;23.298;2023-05-07T00:57:35;14.57;;;11.03;;
7181;SDS011;3632;42.724;23.298;2023-05-07T01:00:04;15.33;;;10.77;;
7181;SDS011;3632;42.724;23.298;2023-05-07T01:02:33;17.00;;;11.77;;
7181;SDS011;3632;42.724;23.298;2023-05-07T01:05:00;14.73;;;11.33;;
7181;SDS011;3632;42.724;23.298;2023-05-07T01:07:29;14.63;;;11.37;;
7181;SDS011;3632;42.724;23.298;2023-05-07T01:09:58;14.03;;;10.73;;
7181;SDS011;3632;42.724;23.298;2023-05-07T01:12:25;13.30;;;10.27;;
7181;SDS011;3632;42.724;23.298;2023-05-07T01:14:53;13.03;;;10.83;;
7181;SDS011;3632;42.724;23.298;2023-05-07T01:17:20;11.50;;;10.00;;
7181;SDS011;3632;42.724;23.298;2023-05-07T01:19:47;14.23;;;10.07;;
7181;SDS011;3632;42.724;23.298;2023-05-07T01:22:14;11.57;;;10.13;;
7181;SDS011;3632;42.724;23.298;2023-05-07T01:24:44;15.03;;;10.33;;
7181;SDS011;3632;42.724;23.298;2023-05-07T01:27:11;13.13;;;10.77;;
7181;SDS011;3632;42.724;23.298;2023-05-07T01:29:38;11.37;;;10.17;;
7181;SDS011;3632;42.724;23.298;2023-05-07T01:32:05;13.60;;;10.10;;
7181;SDS011;3632;42.724;23.298;2023-05-07T01:34:32;11.87;;;10.13;;
7181;SDS011;3632;42.724;23.298;2023-05-07T01:37:00;13.23;;;9.93;;
7181;SDS011;3632;42.724;23.298;2023-05-07T01:39:28;13.87;;;10.60;;
7181;SDS011;3632;42.724;23.298;2023-05-07T01:41:57;10.60;;;9.50;;
7181;SDS011;3632;42.724;23.298;2023-05-07T01:44:25;13.93;;;9.67;;
7181;SDS011;3632;42.724;23.298;2023-05-07T01:46:53;12.13;;;9.60;;
7181;SDS011;3632;42.724;23.298;2023-05-07T01:49:20;13.87;;;10.00;;
7181;SDS011;3632;42.724;23.298;2023-05-07T01:51:47;12.50;;;9.67;;
7181;SDS011;3632;42.724;23.298;2023-05-07T01:54:14;11.80;;;9.60;;
7181;SDS011;3632;42.724;23.298;2023-05-07T01:56:41;12.17;;;9.80;;
7181;SDS011;3632;42.724;23.298;2023-05-07T01:59:09;14.83;;;10.00;;
7181;SDS011;3632;42.724;23.298;2023-05-07T02:01:36;12.57;;;9.87;;
7181;SDS011;3632;42.724;23.298;2023-05-07T02:04:03;10.07;;;8.97;;
7181;SDS011;3632;42.724;23.298;2023-05-07T02:06:30;11.37;;;9.40;;
7181;SDS011;3632;42.724;23.298;2023-05-07T02:08:57;10.93;;;9.20;;
7181;SDS011;3632;42.724;23.298;2023-05-07T02:11:23;12.50;;;9.80;;
7181;SDS011;3632;42.724;23.298;2023-05-07T02:13:50;12.43;;;9.73;;
7181;SDS011;3632;42.724;23.298;2023-05-07T02:16:19;10.73;;;9.33;;
7181;SDS011;3632;42.724;23.298;2023-05-07T02:18:46;11.47;;;9.90;;
7181;SDS011;3632;42.724;23.298;2023-05-07T02:21:13;14.00;;;9.63;;
7181;SDS011;3632;42.724;23.298;2023-05-07T02:23:40;11.37;;;10.07;;
7181;SDS011;3632;42.724;23.298;2023-05-07T02:26:08;11.37;;;9.27;;
7181;SDS011;3632;42.724;23.298;2023-05-07T02:28:36;12.53;;;9.77;;
7181;SDS011;3632;42.724;23.298;2023-05-07T02:31:02;16.27;;;10.60;;
7181;SDS011;3632;42.724;23.298;2023-05-07T02:33:31;11.67;;;9.90;;
7181;SDS011;3632;42.724;23.298;2023-05-07T02:36:05;12.17;;;9.87;;
7181;SDS011;3632;42.724;23.298;2023-05-07T02:38:32;15.77;;;9.80;;
7181;SDS011;3632;42.724;23.298;2023-05-07T02:40:59;11.40;;;9.30;;
7181;SDS011;3632;42.724;23.298;2023-05-07T02:43:26;13.00;;;9.50;;
7181;SDS011;3632;42.724;23.298;2023-05-07T02:45:59;12.10;;;9.53;;
7181;SDS011;3632;42.724;23.298;2023-05-07T02:48:27;13.57;;;8.97;;
7181;SDS011;3632;42.724;23.298;2023-05-07T02:50:55;11.67;;;8.40;;
7181;SDS011;3632;42.724;23.298;2023-05-07T02:53:22;10.90;;;8.87;;
7181;SDS011;3632;42.724;23.298;2023-05-07T02:55:51;10.80;;;8.60;;
7181;SDS011;3632;42.724;23.298;2023-05-07T02:58:18;10.47;;;8.67;;
7181;SDS011;3632;42.724;23.298;2023-05-07T03:00:44;9.33;;;8.27;;
7181;SDS011;3632;42.724;23.298;2023-05-07T03:03:11;8.90;;;7.80;;
7181;SDS011;3632;42.724;23.298;2023-05-07T03:05:38;10.57;;;7.90;;
7181;SDS011;3632;42.724;23.298;2023-05-07T03:08:06;9.23;;;7.00;;
7181;SDS011;3632;42.724;23.298;2023-05-07T03:10:33;8.27;;;6.97;;
7181;SDS011;3632;42.724;23.298;2023-05-07T03:13:00;11.93;;;7.43;;
7181;SDS011;3632;42.724;23.298;2023-05-07T03:15:27;9.60;;;7.27;;
7181;SDS011;3632;42.724;23.298;2023-05-07T03:17:53;10.57;;;7.53;;
7181;SDS011;3632;42.724;23.298;2023-05-07T03:20:20;11.87;;;7.40;;
7181;SDS011;3632;42.724;23.298;2023-05-07T03:22:47;9.40;;;7.47;;
7181;SDS011;3632;42.724;23.298;2023-05-07T03:25:15;9.17;;;6.60;;
7181;SDS011;3632;42.724;23.298;2023-05-07T03:27:42;7.93;;;6.60;;
7181;SDS011;3632;42.724;23.298;2023-05-07T03:30:09;8.03;;;6.80;;
7181;SDS011;3632;42.724;23.298;2023-05-07T03:32:37;11.10;;;7.07;;
7181;SDS011;3632;42.724;23.298;2023-05-07T03:35:04;9.37;;;7.23;;
7181;SDS011;3632;42.724;23.298;2023-05-07T03:37:31;11.00;;;6.77;;
7181;SDS011;3632;42.724;23.298;2023-05-07T03:39:58;8.27;;;6.80;;
7181;SDS011;3632;42.724;23.298;2023-05-07T03:42:26;9.93;;;7.20;;
7181;SDS011;3632;42.724;23.298;2023-05-07T03:44:53;8.17;;;6.93;;
7181;SDS011;3632;42.724;23.298;2023-05-07T03:47:19;8.60;;;6.50;;
7181;SDS011;3632;42.724;23.298;2023-05-07T03:49:46;8.13;;;7.07;;
7181;SDS011;3632;42.724;23.298;2023-05-07T03:52:14;9.17;;;6.67;;
7181;SDS011;3632;42.724;23.298;2023-05-07T03:54:41;10.17;;;7.10;;
7181;SDS011;3632;42.724;23.298;2023-05-07T03:57:07;8.40;;;6.70;;
7181;SDS011;3632;42.724;23.298;2023-05-07T03:59:35;8.70;;;6.63;;
7181;SDS011;3632;42.724;23.298;2023-05-07T04:02:02;8.80;;;7.03;;
7181;SDS011;3632;42.724;23.298;2023-05-07T04:04:29;8.33;;;7.40;;
7181;SDS011;3632;42.724;23.298;2023-05-07T04:06:57;7.83;;;7.03;;
7181;SDS011;3632;42.724;23.298;2023-05-07T04:09:25;10.87;;;7.07;;
7181;SDS011;3632;42.724;23.298;2023-05-07T04:11:52;8.87;;;7.03;;
7181;SDS011;3632;42.724;23.298;2023-05-07T04:14:18;9.30;;;7.37;;
7181;SDS011;3632;42.724;23.298;2023-05-07T04:16:47;8.73;;;6.83;;
7181;SDS011;3632;42.724;23.298;2023-05-07T04:19:13;7.40;;;6.70;;
7181;SDS011;3632;42.724;23.298;2023-05-07T04:21:40;8.77;;;7.03;;
7181;SDS011;3632;42.724;23.298;2023-05-07T04:24:07;8.83;;;7.33;;
7181;SDS011;3632;42.724;23.298;2023-05-07T04:26:34;9.30;;;7.17;;
7181;SDS011;3632;42.724;23.298;2023-05-07T04:29:01;10.80;;;7.00;;
7181;SDS011;3632;42.724;23.298;2023-05-07T04:31:28;8.40;;;7.20;;
7181;SDS011;3632;42.724;23.298;2023-05-07T04:33:57;10.43;;;7.17;;
7181;SDS011;3632;42.724;23.298;2023-05-07T04:36:23;10.40;;;7.13;;
7181;SDS011;3632;42.724;23.298;2023-05-07T04:38:52;9.40;;;6.90;;
7181;SDS011;3632;42.724;23.298;2023-05-07T04:41:19;9.10;;;7.27;;
7181;SDS011;3632;42.724;23.298;2023-05-07T04:43:46;10.17;;;7.73;;
7181;SDS011;3632;42.724;23.298;2023-05-07T04:46:13;9.60;;;7.53;;
7181;SDS011;3632;42.724;23.298;2023-05-07T04:48:40;10.97;;;8.07;;
7181;SDS011;3632;42.724;23.298;2023-05-07T04:51:08;12.83;;;8.43;;
7181;SDS011;3632;42.724;23.298;2023-05-07T04:53:35;10.10;;;7.90;;
7181;SDS011;3632;42.724;23.298;2023-05-07T04:56:02;9.50;;;7.73;;
7181;SDS011;3632;42.724;23.298;2023-05-07T04:58:28;8.87;;;7.73;;
7181;SDS011;3632;42.724;23.298;2023-05-07T05:00:56;10.73;;;8.20;;
7181;SDS011;3632;42.724;23.298;2023-05-07T05:03:23;10.47;;;7.80;;
7181;SDS011;3632;42.724;23.298;2023-05-07T05:05:50;11.70;;;8.30;;
7181;SDS011;3632;42.724;23.298;2023-05-07T05:08:19;9.77;;;7.50;;
7181;SDS011;3632;42.724;23.298;2023-05-07T05:10:45;10.00;;;8.27;;
7181;SDS011;3632;42.724;23.298;2023-05-07T05:13:13;8.60;;;7.43;;
7181;SDS011;3632;42.724;23.298;2023-05-07T05:15:40;10.70;;;7.70;;
7181;SDS011;3632;42.724;23.298;2023-05-07T05:18:07;10.43;;;8.20;;
7181;SDS011;3632;42.724;23.298;2023-05-07T05:20:33;14.47;;;8.80;;
7181;SDS011;3632;42.724;23.298;2023-05-07T05:23:01;11.60;;;8.50;;
7181;SDS011;3632;42.724;23.298;2023-05-07T05:25:29;11.60;;;8.50;;
7181;SDS011;3632;42.724;23.298;2023-05-07T05:27:55;9.73;;;8.63;;
7181;SDS011;3632;42.724;23.298;2023-05-07T05:30:22;10.50;;;8.50;;
7181;SDS011;3632;42.724;23.298;2023-05-07T05:32:49;9.37;;;8.37;;
7181;SDS011;3632;42.724;23.298;2023-05-07T05:35:16;12.17;;;8.50;;
7181;SDS011;3632;42.724;23.298;2023-05-07T05:37:43;10.47;;;8.90;;
7181;SDS011;3632;42.724;23.298;2023-05-07T05:40:10;11.87;;;8.57;;
7181;SDS011;3632;42.724;23.298;2023-05-07T05:42:38;10.10;;;8.43;;
7181;SDS011;3632;42.724;23.298;2023-05-07T05:45:06;10.47;;;9.10;;
7181;SDS011;3632;42.724;23.298;2023-05-07T05:47:33;10.40;;;9.17;;
7181;SDS011;3632;42.724;23.298;2023-05-07T05:50:00;10.50;;;9.00;;
7181;SDS011;3632;42.724;23.298;2023-05-07T05:52:27;13.33;;;9.53;;
7181;SDS011;3632;42.724;23.298;2023-05-07T05:54:54;14.23;;;9.90;;
7181;SDS011;3632;42.724;23.298;2023-05-07T05:57:21;10.90;;;9.60;;
7181;SDS011;3632;42.724;23.298;2023-05-07T05:59:49;11.73;;;9.77;;
7181;SDS011;3632;42.724;23.298;2023-05-07T06:02:16;13.47;;;9.47;;
7181;SDS011;3632;42.724;23.298;2023-05-07T06:04:42;11.03;;;9.87;;
7181;SDS011;3632;42.724;23.298;2023-05-07T06:07:10;12.97;;;9.70;;
7181;SDS011;3632;42.724;23.298;2023-05-07T06:09:37;9.83;;;8.83;;
7181;SDS011;3632;42.724;23.298;2023-05-07T06:12:03;12.57;;;10.03;;
7181;SDS011;3632;42.724;23.298;2023-05-07T06:14:31;11.00;;;9.90;;
7181;SDS011;3632;42.724;23.298;2023-05-07T06:16:59;14.40;;;10.43;;
7181;SDS011;3632;42.724;23.298;2023-05-07T06:19:26;11.60;;;10.47;;
7181;SDS011;3632;42.724;23.298;2023-05-07T06:21:53;11.10;;;10.00;;
7181;SDS011;3632;42.724;23.298;2023-05-07T06:24:21;10.50;;;9.37;;
7181;SDS011;3632;42.724;23.298;2023-05-07T06:26:49;12.37;;;11.07;;
7181;SDS011;3632;42.724;23.298;2023-05-07T06:29:16;13.53;;;10.80;;
7181;SDS011;3632;42.724;23.298;2023-05-07T06:31:42;19.20;;;15.00;;
7181;SDS011;3632;42.724;23.298;2023-05-07T06:34:11;13.00;;;11.70;;
7181;SDS011;3632;42.724;23.298;2023-05-07T06:36:40;13.93;;;10.77;;
7181;SDS011;3632;42.724;23.298;2023-05-07T06:39:07;13.50;;;11.57;;
7181;SDS011;3632;42.724;23.298;2023-05-07T06:41:34;15.30;;;10.07;;
7181;SDS011;3632;42.724;23.298;2023-05-07T06:44:01;14.57;;;10.57;;
7181;SDS011;3632;42.724;23.298;2023-05-07T06:46:28;12.87;;;9.80;;
7181;SDS011;3632;42.724;23.298;2023-05-07T06:48:56;12.07;;;9.53;;
7181;SDS011;3632;42.724;23.298;2023-05-07T06:51:24;10.63;;;9.63;;
7181;SDS011;3632;42.724;23.298;2023-05-07T06:53:52;12.27;;;10.83;;
7181;SDS011;3632;42.724;23.298;2023-05-07T06:56:18;11.63;;;10.43;;
7181;SDS011;3632;42.724;23.298;2023-05-07T06:58:46;14.33;;;12.80;;
7181;SDS011;3632;42.724;23.298;2023-05-07T07:01:13;13.87;;;11.63;;
7181;SDS011;3632;42.724;23.298;2023-05-07T07:03:40;10.90;;;9.80;;
7181;SDS011;3632;42.724;23.298;2023-05-07T07:06:06;10.83;;;8.60;;
7181;SDS011;3632;42.724;23.298;2023-05-07T07:08:35;12.73;;;9.30;;
7181;SDS011;3632;42.724;23.298;2023-05-07T07:11:03;10.67;;;9.50;;
7181;SDS011;3632;42.724;23.298;2023-05-07T07:13:30;11.60;;;9.43;;
7181;SDS011;3632;42.724;23.298;2023-05-07T07:15:57;15.90;;;9.43;;
7181;SDS011;3632;42.724;23.298;2023-05-07T07:18:24;11.80;;;9.00;;
7181;SDS011;3632;42.724;23.298;2023-05-07T07:20:50;13.00;;;8.90;;
7181;SDS011;3632;42.724;23.298;2023-05-07T07:23:17;14.30;;;10.90;;
7181;SDS011;3632;42.724;23.298;2023-05-07T07:25:46;13.13;;;9.17;;
7181;SDS011;3632;42.724;23.298;2023-05-07T07:28:13;13.40;;;10.10;;
7181;SDS011;3632;42.724;23.298;2023-05-07T07:30:40;11.80;;;10.60;;
7181;SDS011;3632;42.724;23.298;2023-05-07T07:33:07;20.50;;;15.63;;
7181;SDS011;3632;42.724;23.298;2023-05-07T07:35:34;10.90;;;9.57;;
7181;SDS011;3632;42.724;23.298;2023-05-07T07:38:01;11.27;;;8.83;;
7181;SDS011;3632;42.724;23.298;2023-05-07T07:40:28;15.27;;;11.00;;
7181;SDS011;3632;42.724;23.298;2023-05-07T07:42:56;10.70;;;9.60;;
7181;SDS011;3632;42.724;23.298;2023-05-07T07:45:23;14.37;;;11.00;;
7181;SDS011;3632;42.724;23.298;2023-05-07T07:47:52;16.07;;;13.33;;
7181;SDS011;3632;42.724;23.298;2023-05-07T07:50:19;12.70;;;10.23;;
7181;SDS011;3632;42.724;23.298;2023-05-07T07:52:48;9.83;;;8.83;;
7181;SDS011;3632;42.724;23.298;2023-05-07T07:55:15;9.50;;;8.50;;
7181;SDS011;3632;42.724;23.298;2023-05-07T07:57:46;11.30;;;9.33;;
7181;SDS011;3632;42.724;23.298;2023-05-07T08:00:15;9.47;;;8.57;;
7181;SDS011;3632;42.724;23.298;2023-05-07T08:02:42;9.67;;;8.60;;
7181;SDS011;3632;42.724;23.298;2023-05-07T08:05:09;11.37;;;8.07;;
7181;SDS011;3632;42.724;23.298;2023-05-07T08:07:36;8.77;;;7.97;;
7181;SDS011;3632;42.724;23.298;2023-05-07T08:10:03;11.77;;;8.67;;
7181;SDS011;3632;42.724;23.298;2023-05-07T08:12:30;12.77;;;9.30;;
7181;SDS011;3632;42.724;23.298;2023-05-07T08:14:57;11.17;;;7.80;;
7181;SDS011;3632;42.724;23.298;2023-05-07T08:17:25;12.67;;;7.67;;
7181;SDS011;3632;42.724;23.298;2023-05-07T08:19:52;9.00;;;7.40;;
7181;SDS011;3632;42.724;23.298;2023-05-07T08:22:19;9.60;;;7.33;;
7181;SDS011;3632;42.724;23.298;2023-05-07T08:24:47;11.00;;;7.83;;
7181;SDS011;3632;42.724;23.298;2023-05-07T08:27:13;8.83;;;7.10;;
7181;SDS011;3632;42.724;23.298;2023-05-07T08:29:40;12.93;;;7.50;;
7181;SDS011;3632;42.724;23.298;2023-05-07T08:32:07;8.50;;;7.10;;
7181;SDS011;3632;42.724;23.298;2023-05-07T08:34:35;8.93;;;7.00;;
7181;SDS011;3632;42.724;23.298;2023-05-07T08:37:02;9.50;;;6.57;;
7181;SDS011;3632;42.724;23.298;2023-05-07T08:39:29;8.00;;;6.40;;
7181;SDS011;3632;42.724;23.298;2023-05-07T08:41:56;7.57;;;6.70;;
7181;SDS011;3632;42.724;23.298;2023-05-07T08:44:27;7.43;;;6.23;;
7181;SDS011;3632;42.724;23.298;2023-05-07T08:46:58;7.20;;;6.30;;
7181;SDS011;3632;42.724;23.298;2023-05-07T08:49:28;7.27;;;6.57;;
7181;SDS011;3632;42.724;23.298;2023-05-07T08:51:56;6.77;;;6.17;;
7181;SDS011;3632;42.724;23.298;2023-05-07T08:54:23;7.40;;;5.70;;
7181;SDS011;3632;42.724;23.298;2023-05-07T08:56:51;8.77;;;7.13;;
7181;SDS011;3632;42.724;23.298;2023-05-07T08:59:18;8.43;;;6.80;;
7181;SDS011;3632;42.724;23.298;2023-05-07T09:01:45;10.27;;;6.33;;
7181;SDS011;3632;42.724;23.298;2023-05-07T09:04:12;6.53;;;5.37;;
7181;SDS011;3632;42.724;23.298;2023-05-07T09:06:38;6.67;;;4.50;;
7181;SDS011;3632;42.724;23.298;2023-05-07T09:09:08;8.13;;;6.50;;
7181;SDS011;3632;42.724;23.298;2023-05-07T09:11:35;6.03;;;4.77;;
7181;SDS011;3632;42.724;23.298;2023-05-07T09:14:01;8.10;;;6.77;;
7181;SDS011;3632;42.724;23.298;2023-05-07T09:16:29;8.63;;;6.43;;
7181;SDS011;3632;42.724;23.298;2023-05-07T09:18:57;7.07;;;5.13;;
7181;SDS011;3632;42.724;23.298;2023-05-07T09:21:25;6.93;;;5.17;;
7181;SDS011;3632;42.724;23.298;2023-05-07T09:23:52;6.27;;;4.37;;
7181;SDS011;3632;42.724;23.298;2023-05-07T09:26:22;5.90;;;4.40;;
7181;SDS011;3632;42.724;23.298;2023-05-07T09:28:49;5.30;;;4.30;;
7181;SDS011;3632;42.724;23.298;2023-05-07T09:31:16;9.10;;;7.10;;
7181;SDS011;3632;42.724;23.298;2023-05-07T09:33:43;9.57;;;6.43;;
7181;SDS011;3632;42.724;23.298;2023-05-07T09:36:10;5.93;;;5.30;;
7181;SDS011;3632;42.724;23.298;2023-05-07T09:38:37;6.47;;;5.40;;
7181;SDS011;3632;42.724;23.298;2023-05-07T09:41:04;7.20;;;5.10;;
7181;SDS011;3632;42.724;23.298;2023-05-07T09:43:34;6.23;;;5.00;;
7181;SDS011;3632;42.724;23.298;2023-05-07T09:46:06;7.57;;;4.60;;
7181;SDS011;3632;42.724;23.298;2023-05-07T09:48:37;6.47;;;3.87;;
7181;SDS011;3632;42.724;23.298;2023-05-07T09:51:06;7.13;;;5.03;;
7181;SDS011;3632;42.724;23.298;2023-05-07T09:53:47;6.10;;;5.33;;
7181;SDS011;3632;42.724;23.298;2023-05-07T09:56:14;7.07;;;4.83;;
7181;SDS011;3632;42.724;23.298;2023-05-07T09:58:44;5.63;;;4.43;;
7181;SDS011;3632;42.724;23.298;2023-05-07T10:01:11;9.47;;;4.73;;
7181;SDS011;3632;42.724;23.298;2023-05-07T10:03:39;4.17;;;3.70;;
7181;SDS011;3632;42.724;23.298;2023-05-07T10:06:08;4.30;;;3.33;;
7181;SDS011;3632;42.724;23.298;2023-05-07T10:08:36;5.20;;;3.70;;
7181;SDS011;3632;42.724;23.298;2023-05-07T10:11:03;4.53;;;3.20;;
7181;SDS011;3632;42.724;23.298;2023-05-07T10:13:31;4.20;;;3.90;;
7181;SDS011;3632;42.724;23.298;2023-05-07T10:16:02;8.80;;;4.60;;
7181;SDS011;3632;42.724;23.298;2023-05-07T10:18:30;4.77;;;3.37;;
7181;SDS011;3632;42.724;23.298;2023-05-07T10:21:00;5.10;;;2.90;;
7181;SDS011;3632;42.724;23.298;2023-05-07T10:23:31;4.50;;;4.10;;
7181;SDS011;3632;42.724;23.298;2023-05-07T10:25:59;4.70;;;3.10;;
7181;SDS011;3632;42.724;23.298;2023-05-07T10:28:30;4.83;;;3.47;;
7181;SDS011;3632;42.724;23.298;2023-05-07T10:31:05;6.53;;;4.70;;
7181;SDS011;3632;42.724;23.298;2023-05-07T10:33:41;4.27;;;2.77;;
7181;SDS011;3632;42.724;23.298;2023-05-07T10:36:11;7.57;;;3.40;;
7181;SDS011;3632;42.724;23.298;2023-05-07T10:38:38;6.57;;;4.07;;
7181;SDS011;3632;42.724;23.298;2023-05-07T10:41:06;3.50;;;2.77;;
7181;SDS011;3632;42.724;23.298;2023-05-07T10:43:39;5.80;;;3.20;;
7181;SDS011;3632;42.724;23.298;2023-05-07T10:46:16;4.90;;;3.50;;
7181;SDS011;3632;42.724;23.298;2023-05-07T10:51:33;4.40;;;3.10;;
7181;SDS011;3632;42.724;23.298;2023-05-07T10:54:19;5.40;;;4.30;;
7181;SDS011;3632;42.724;23.298;2023-05-07T10:56:50;4.83;;;3.90;;
7181;SDS011;3632;42.724;23.298;2023-05-07T10:59:35;3.53;;;3.23;;
7181;SDS011;3632;42.724;23.298;2023-05-07T11:02:12;4.43;;;3.77;;
7181;SDS011;3632;42.724;23.298;2023-05-07T11:04:40;8.73;;;4.73;;
7181;SDS011;3632;42.724;23.298;2023-05-07T11:07:26;6.40;;;3.80;;
7181;SDS011;3632;42.724;23.298;2023-05-07T11:10:03;6.93;;;5.03;;
7181;SDS011;3632;42.724;23.298;2023-05-07T11:12:51;6.67;;;4.37;;
7181;SDS011;3632;42.724;23.298;2023-05-07T11:15:35;4.63;;;3.43;;
7181;SDS011;3632;42.724;23.298;2023-05-07T11:18:08;4.20;;;3.40;;
7181;SDS011;3632;42.724;23.298;2023-05-07T11:20:51;3.93;;;3.47;;
7181;SDS011;3632;42.724;23.298;2023-05-07T11:26:24;3.50;;;3.20;;
7181;SDS011;3632;42.724;23.298;2023-05-07T11:28:52;4.73;;;2.90;;
7181;SDS011;3632;42.724;23.298;2023-05-07T11:31:20;3.73;;;2.90;;
7181;SDS011;3632;42.724;23.298;2023-05-07T11:33:50;4.63;;;2.83;;
7181;SDS011;3632;42.724;23.298;2023-05-07T11:36:17;3.27;;;3.00;;
7181;SDS011;3632;42.724;23.298;2023-05-07T11:38:46;2.73;;;2.50;;
7181;SDS011;3632;42.724;23.298;2023-05-07T11:41:13;3.17;;;2.47;;
7181;SDS011;3632;42.724;23.298;2023-05-07T11:43:53;3.57;;;2.60;;
7181;SDS011;3632;42.724;23.298;2023-05-07T11:46:21;3.50;;;2.50;;
7181;SDS011;3632;42.724;23.298;2023-05-07T11:48:49;5.77;;;5.13;;
7181;SDS011;3632;42.724;23.298;2023-05-07T11:51:20;5.47;;;4.17;;
7181;SDS011;3632;42.724;23.298;2023-05-07T11:53:47;6.43;;;5.20;;
7181;SDS011;3632;42.724;23.298;2023-05-07T11:56:16;5.23;;;4.73;;
7181;SDS011;3632;42.724;23.298;2023-05-07T11:58:43;6.83;;;4.90;;
7181;SDS011;3632;42.724;23.298;2023-05-07T12:01:12;5.23;;;4.70;;
7181;SDS011;3632;42.724;23.298;2023-05-07T12:03:40;4.87;;;2.97;;
7181;SDS011;3632;42.724;23.298;2023-05-07T12:06:10;5.00;;;3.97;;
7181;SDS011;3632;42.724;23.298;2023-05-07T12:08:37;7.40;;;6.60;;
7181;SDS011;3632;42.724;23.298;2023-05-07T12:11:09;6.70;;;6.00;;
7181;SDS011;3632;42.724;23.298;2023-05-07T12:13:38;6.03;;;5.43;;
7181;SDS011;3632;42.724;23.298;2023-05-07T12:16:05;5.03;;;4.53;;
7181;SDS011;3632;42.724;23.298;2023-05-07T12:18:34;3.67;;;2.90;;
7181;SDS011;3632;42.724;23.298;2023-05-07T12:21:02;3.73;;;2.80;;
7181;SDS011;3632;42.724;23.298;2023-05-07T12:23:32;4.63;;;3.90;;
7181;SDS011;3632;42.724;23.298;2023-05-07T12:26:00;3.73;;;3.07;;
7181;SDS011;3632;42.724;23.298;2023-05-07T12:28:27;5.37;;;3.10;;
7181;SDS011;3632;42.724;23.298;2023-05-07T12:30:55;3.07;;;2.60;;
7181;SDS011;3632;42.724;23.298;2023-05-07T12:33:23;3.60;;;2.60;;
7181;SDS011;3632;42.724;23.298;2023-05-07T12:35:54;2.93;;;2.73;;
7181;SDS011;3632;42.724;23.298;2023-05-07T12:38:22;6.57;;;4.70;;
7181;SDS011;3632;42.724;23.298;2023-05-07T12:40:53;5.33;;;3.63;;
7181;SDS011;3632;42.724;23.298;2023-05-07T12:43:23;3.47;;;3.17;;
7181;SDS011;3632;42.724;23.298;2023-05-07T12:45:52;4.87;;;3.23;;
7181;SDS011;3632;42.724;23.298;2023-05-07T12:48:22;4.07;;;3.40;;
7181;SDS011;3632;42.724;23.298;2023-05-07T12:50:52;5.50;;;3.53;;
7181;SDS011;3632;42.724;23.298;2023-05-07T12:53:20;3.65;;;2.58;;
7181;SDS011;3632;42.724;23.298;2023-05-07T12:55:48;3.07;;;2.77;;
7181;SDS011;3632;42.724;23.298;2023-05-07T12:58:20;2.78;;;2.55;;
7181;SDS011;3632;42.724;23.298;2023-05-07T13:00:53;3.70;;;3.40;;
7181;SDS011;3632;42.724;23.298;2023-05-07T13:03:30;3.63;;;3.33;;
7181;SDS011;3632;42.724;23.298;2023-05-07T13:06:01;6.45;;;5.38;;
7181;SDS011;3632;42.724;23.298;2023-05-07T13:08:31;8.03;;;7.23;;
7181;SDS011;3632;42.724;23.298;2023-05-07T13:11:01;6.78;;;5.97;;
7181;SDS011;3632;42.724;23.298;2023-05-07T13:13:29;7.00;;;5.60;;
7181;SDS011;3632;42.724;23.298;2023-05-07T13:15:59;6.43;;;5.15;;
7181;SDS011;3632;42.724;23.298;2023-05-07T13:18:26;5.65;;;3.90;;
7181;SDS011;3632;42.724;23.298;2023-05-07T13:20:53;4.10;;;3.58;;
7181;SDS011;3632;42.724;23.298;2023-05-07T13:23:20;5.95;;;3.55;;
7181;SDS011;3632;42.724;23.298;2023-05-07T13:25:47;4.03;;;2.83;;
7181;SDS011;3632;42.724;23.298;2023-05-07T13:28:15;8.00;;;5.30;;
7181;SDS011;3632;42.724;23.298;2023-05-07T13:30:42;3.75;;;3.35;;
7181;SDS011;3632;42.724;23.298;2023-05-07T13:33:12;4.20;;;2.88;;
7181;SDS011;3632;42.724;23.298;2023-05-07T13:35:40;7.22;;;3.60;;
7181;SDS011;3632;42.724;23.298;2023-05-07T13:38:07;3.42;;;3.13;;
7181;SDS011;3632;42.724;23.298;2023-05-07T13:40:34;3.05;;;2.75;;
7181;SDS011;3632;42.724;23.298;2023-05-07T13:43:01;2.72;;;2.53;;
7181;SDS011;3632;42.724;23.298;2023-05-07T13:45:29;4.13;;;3.72;;
7181;SDS011;3632;42.724;23.298;2023-05-07T13:47:56;5.23;;;3.63;;
7181;SDS011;3632;42.724;23.298;2023-05-07T13:50:23;3.67;;;3.10;;
7181;SDS011;3632;42.724;23.298;2023-05-07T13:52:52;2.60;;;2.40;;
7181;SDS011;3632;42.724;23.298;2023-05-07T13:55:18;6.80;;;3.70;;
7181;SDS011;3632;42.724;23.298;2023-05-07T13:57:46;4.27;;;3.33;;
7181;SDS011;3632;42.724;23.298;2023-05-07T14:00:13;4.80;;;3.40;;
7181;SDS011;3632;42.724;23.298;2023-05-07T14:02:44;4.72;;;3.70;;
7181;SDS011;3632;42.724;23.298;2023-05-07T14:05:11;7.03;;;4.22;;
7181;SDS011;3632;42.724;23.298;2023-05-07T14:07:38;7.35;;;5.30;;
7181;SDS011;3632;42.724;23.298;2023-05-07T14:10:05;6.93;;;3.33;;
7181;SDS011;3632;42.724;23.298;2023-05-07T14:12:33;9.27;;;5.20;;
7181;SDS011;3632;42.724;23.298;2023-05-07T14:15:00;4.85;;;3.30;;
7181;SDS011;3632;42.724;23.298;2023-05-07T14:17:27;2.95;;;2.60;;
7181;SDS011;3632;42.724;23.298;2023-05-07T14:19:57;3.88;;;3.10;;
7181;SDS011;3632;42.724;23.298;2023-05-07T14:22:23;5.43;;;3.10;;
7181;SDS011;3632;42.724;23.298;2023-05-07T14:24:50;4.70;;;3.72;;
7181;SDS011;3632;42.724;23.298;2023-05-07T14:27:17;4.72;;;3.70;;
7181;SDS011;3632;42.724;23.298;2023-05-07T14:29:44;3.78;;;3.25;;
7181;SDS011;3632;42.724;23.298;2023-05-07T14:32:15;5.97;;;3.08;;
7181;SDS011;3632;42.724;23.298;2023-05-07T14:34:42;4.35;;;3.08;;
7181;SDS011;3632;42.724;23.298;2023-05-07T14:37:11;5.53;;;3.72;;
7181;SDS011;3632;42.724;23.298;2023-05-07T14:39:38;4.85;;;2.80;;
7181;SDS011;3632;42.724;23.298;2023-05-07T14:42:05;8.35;;;5.88;;
7181;SDS011;3632;42.724;23.298;2023-05-07T14:44:32;4.35;;;3.60;;
7181;SDS011;3632;42.724;23.298;2023-05-07T14:46:59;4.32;;;3.13;;
7181;SDS011;3632;42.724;23.298;2023-05-07T14:49:26;4.72;;;4.20;;
7181;SDS011;3632;42.724;23.298;2023-05-07T14:51:53;6.25;;;5.47;;
7181;SDS011;3632;42.724;23.298;2023-05-07T14:54:22;4.78;;;3.50;;
7181;SDS011;3632;42.724;23.298;2023-05-07T14:56:49;4.43;;;3.20;;
7181;SDS011;3632;42.724;23.298;2023-05-07T14:59:16;4.13;;;3.73;;
7181;SDS011;3632;42.724;23.298;2023-05-07T15:01:46;4.27;;;3.60;;
7181;SDS011;3632;42.724;23.298;2023-05-07T15:04:13;3.88;;;3.33;;